Aviation Digital Data Service (ADDS)

Output produced by METARs form (2111 UTC 11 February 2016)
found at http://aviationweather.gov/adds/metars/
 
KPVD 112109Z 1121/1218 29015G27KT P6SM BKN050 
     FM120000 30013G22KT P6SM SCT250 
     FM120700 29009KT P6SM FEW250 
     FM121700 23007KT P6SM SCT150